sensor_id;sensor_type;location;lat;lon;timestamp;temperature;humidity
8043;DHT22;4064;48.132;11.366;2023-06-14T00:00:51;12.60;57.90
8043;DHT22;4064;48.132;11.366;2023-06-14T00:03:18;12.20;58.40
8043;DHT22;4064;48.132;11.366;2023-06-14T00:05:47;12.40;58.70
8043;DHT22;4064;48.132;11.366;2023-06-14T00:08:13;12.60;58.30
8043;DHT22;4064;48.132;11.366;2023-06-14T00:10:40;12.60;58.30
8043;DHT22;4064;48.132;11.366;2023-06-14T00:13:09;12.60;58.10
8043;DHT22;4064;48.132;11.366;2023-06-14T00:15:35;12.60;57.90
8043;DHT22;4064;48.132;11.366;2023-06-14T00:18:02;12.60;57.90
8043;DHT22;4064;48.132;11.366;2023-06-14T00:20:28;12.60;58.00
8043;DHT22;4064;48.132;11.366;2023-06-14T00:22:55;12.40;58.30
8043;DHT22;4064;48.132;11.366;2023-06-14T00:25:22;12.40;58.70
8043;DHT22;4064;48.132;11.366;2023-06-14T00:27:49;12.40;58.60
8043;DHT22;4064;48.132;11.366;2023-06-14T00:30:14;12.40;58.70
8043;DHT22;4064;48.132;11.366;2023-06-14T00:32:40;12.40;58.70
8043;DHT22;4064;48.132;11.366;2023-06-14T00:35:08;12.20;59.10
8043;DHT22;4064;48.132;11.366;2023-06-14T00:37:35;12.30;59.20
8043;DHT22;4064;48.132;11.366;2023-06-14T00:40:01;12.10;59.50
8043;DHT22;4064;48.132;11.366;2023-06-14T00:42:28;11.90;60.20
8043;DHT22;4064;48.132;11.366;2023-06-14T00:44:54;12.10;59.80
8043;DHT22;4064;48.132;11.366;2023-06-14T00:47:21;12.20;59.20
8043;DHT22;4064;48.132;11.366;2023-06-14T00:49:48;12.10;59.70
8043;DHT22;4064;48.132;11.366;2023-06-14T00:52:34;12.00;59.20
8043;DHT22;4064;48.132;11.366;2023-06-14T00:55:01;12.10;58.80
8043;DHT22;4064;48.132;11.366;2023-06-14T00:57:36;12.10;59.40
8043;DHT22;4064;48.132;11.366;2023-06-14T01:00:08;12.10;59.20
8043;DHT22;4064;48.132;11.366;2023-06-14T01:02:39;12.00;59.30
8043;DHT22;4064;48.132;11.366;2023-06-14T01:05:06;11.80;59.60
8043;DHT22;4064;48.132;11.366;2023-06-14T01:10:56;11.90;59.90
8043;DHT22;4064;48.132;11.366;2023-06-14T01:13:38;11.80;60.00
8043;DHT22;4064;48.132;11.366;2023-06-14T01:16:09;11.70;60.60
8043;DHT22;4064;48.132;11.366;2023-06-14T01:18:36;11.60;61.00
8043;DHT22;4064;48.132;11.366;2023-06-14T01:21:02;11.80;61.00
8043;DHT22;4064;48.132;11.366;2023-06-14T01:23:31;11.60;61.00
8043;DHT22;4064;48.132;11.366;2023-06-14T01:25:59;11.60;60.70
8043;DHT22;4064;48.132;11.366;2023-06-14T01:28:26;11.70;61.30
8043;DHT22;4064;48.132;11.366;2023-06-14T01:30:59;11.70;60.70
8043;DHT22;4064;48.132;11.366;2023-06-14T01:33:41;11.70;60.60
8043;DHT22;4064;48.132;11.366;2023-06-14T01:36:08;11.50;61.00
8043;DHT22;4064;48.132;11.366;2023-06-14T01:38:35;11.50;61.20
8043;DHT22;4064;48.132;11.366;2023-06-14T01:41:02;11.50;61.20
8043;DHT22;4064;48.132;11.366;2023-06-14T01:43:31;11.40;61.00
8043;DHT22;4064;48.132;11.366;2023-06-14T01:45:57;11.40;61.80
8043;DHT22;4064;48.132;11.366;2023-06-14T01:48:25;11.30;61.60
8043;DHT22;4064;48.132;11.366;2023-06-14T01:50:52;11.30;61.20
8043;DHT22;4064;48.132;11.366;2023-06-14T01:53:18;11.40;61.50
8043;DHT22;4064;48.132;11.366;2023-06-14T01:55:44;11.40;61.40
8043;DHT22;4064;48.132;11.366;2023-06-14T01:58:15;11.40;61.80
8043;DHT22;4064;48.132;11.366;2023-06-14T02:00:44;11.20;61.50
8043;DHT22;4064;48.132;11.366;2023-06-14T02:03:11;11.20;60.70
8043;DHT22;4064;48.132;11.366;2023-06-14T02:05:38;11.10;61.50
8043;DHT22;4064;48.132;11.366;2023-06-14T02:08:06;11.10;60.70
8043;DHT22;4064;48.132;11.366;2023-06-14T02:10:33;11.10;61.40
8043;DHT22;4064;48.132;11.366;2023-06-14T02:12:59;11.00;62.00
8043;DHT22;4064;48.132;11.366;2023-06-14T02:15:25;11.10;62.20
8043;DHT22;4064;48.132;11.366;2023-06-14T02:18:00;11.10;62.00
8043;DHT22;4064;48.132;11.366;2023-06-14T02:20:26;11.20;61.90
8043;DHT22;4064;48.132;11.366;2023-06-14T02:22:52;10.80;63.00
8043;DHT22;4064;48.132;11.366;2023-06-14T02:25:18;10.90;63.30
8043;DHT22;4064;48.132;11.366;2023-06-14T02:27:44;11.00;62.90
8043;DHT22;4064;48.132;11.366;2023-06-14T02:30:11;10.90;63.20
8043;DHT22;4064;48.132;11.366;2023-06-14T02:32:37;11.00;63.40
8043;DHT22;4064;48.132;11.366;2023-06-14T02:35:04;10.90;63.50
8043;DHT22;4064;48.132;11.366;2023-06-14T02:37:30;10.80;64.00
8043;DHT22;4064;48.132;11.366;2023-06-14T02:39:56;10.70;65.10
8043;DHT22;4064;48.132;11.366;2023-06-14T02:42:22;10.80;64.90
8043;DHT22;4064;48.132;11.366;2023-06-14T02:44:49;10.80;64.40
8043;DHT22;4064;48.132;11.366;2023-06-14T02:47:17;10.60;64.90
8043;DHT22;4064;48.132;11.366;2023-06-14T02:49:44;10.70;64.80
8043;DHT22;4064;48.132;11.366;2023-06-14T02:52:12;10.60;64.30
8043;DHT22;4064;48.132;11.366;2023-06-14T02:54:38;10.70;63.80
8043;DHT22;4064;48.132;11.366;2023-06-14T02:57:06;10.60;64.10
8043;DHT22;4064;48.132;11.366;2023-06-14T02:59:36;10.20;65.50
8043;DHT22;4064;48.132;11.366;2023-06-14T03:02:02;10.50;65.70
8043;DHT22;4064;48.132;11.366;2023-06-14T03:04:28;10.70;65.40
8043;DHT22;4064;48.132;11.366;2023-06-14T03:06:55;10.60;66.10
8043;DHT22;4064;48.132;11.366;2023-06-14T03:09:21;10.50;65.80
8043;DHT22;4064;48.132;11.366;2023-06-14T03:11:47;10.50;65.50
8043;DHT22;4064;48.132;11.366;2023-06-14T03:14:13;10.30;66.00
8043;DHT22;4064;48.132;11.366;2023-06-14T03:16:40;10.20;67.10
8043;DHT22;4064;48.132;11.366;2023-06-14T03:19:07;9.90;68.70
8043;DHT22;4064;48.132;11.366;2023-06-14T03:21:33;9.80;69.40
8043;DHT22;4064;48.132;11.366;2023-06-14T03:24:00;10.00;68.30
8043;DHT22;4064;48.132;11.366;2023-06-14T03:26:29;10.10;68.00
8043;DHT22;4064;48.132;11.366;2023-06-14T03:28:57;10.00;68.60
8043;DHT22;4064;48.132;11.366;2023-06-14T03:31:23;10.00;68.50
8043;DHT22;4064;48.132;11.366;2023-06-14T03:33:49;10.00;69.00
8043;DHT22;4064;48.132;11.366;2023-06-14T03:36:15;10.10;68.40
8043;DHT22;4064;48.132;11.366;2023-06-14T03:38:41;10.00;69.30
8043;DHT22;4064;48.132;11.366;2023-06-14T03:41:07;10.00;69.10
8043;DHT22;4064;48.132;11.366;2023-06-14T03:43:33;10.00;69.30
8043;DHT22;4064;48.132;11.366;2023-06-14T03:46:00;10.10;68.60
8043;DHT22;4064;48.132;11.366;2023-06-14T03:48:26;10.30;68.20
8043;DHT22;4064;48.132;11.366;2023-06-14T03:50:52;10.40;68.30
8043;DHT22;4064;48.132;11.366;2023-06-14T03:53:20;10.40;68.30
8043;DHT22;4064;48.132;11.366;2023-06-14T03:55:49;10.30;68.40
8043;DHT22;4064;48.132;11.366;2023-06-14T03:58:18;10.30;69.20
8043;DHT22;4064;48.132;11.366;2023-06-14T04:00:44;10.30;69.00
8043;DHT22;4064;48.132;11.366;2023-06-14T04:03:11;10.20;69.60
8043;DHT22;4064;48.132;11.366;2023-06-14T04:05:41;10.00;70.10
8043;DHT22;4064;48.132;11.366;2023-06-14T04:08:08;9.70;72.10
8043;DHT22;4064;48.132;11.366;2023-06-14T04:10:36;9.50;72.40
8043;DHT22;4064;48.132;11.366;2023-06-14T04:13:02;9.90;72.10
8043;DHT22;4064;48.132;11.366;2023-06-14T04:15:28;10.00;69.60
8043;DHT22;4064;48.132;11.366;2023-06-14T04:17:59;9.80;72.60
8043;DHT22;4064;48.132;11.366;2023-06-14T04:20:28;9.60;73.90
8043;DHT22;4064;48.132;11.366;2023-06-14T04:23:10;9.60;74.90
8043;DHT22;4064;48.132;11.366;2023-06-14T04:25:37;9.80;73.20
8043;DHT22;4064;48.132;11.366;2023-06-14T04:28:03;10.00;71.90
8043;DHT22;4064;48.132;11.366;2023-06-14T04:30:29;10.10;73.70
8043;DHT22;4064;48.132;11.366;2023-06-14T04:32:57;10.10;73.60
8043;DHT22;4064;48.132;11.366;2023-06-14T04:35:24;10.30;72.00
8043;DHT22;4064;48.132;11.366;2023-06-14T04:37:50;10.20;72.80
8043;DHT22;4064;48.132;11.366;2023-06-14T04:40:19;10.60;73.80
8043;DHT22;4064;48.132;11.366;2023-06-14T04:42:45;10.90;72.60
8043;DHT22;4064;48.132;11.366;2023-06-14T04:45:12;10.80;70.80
8043;DHT22;4064;48.132;11.366;2023-06-14T04:47:39;10.70;70.10
8043;DHT22;4064;48.132;11.366;2023-06-14T04:50:06;10.70;70.00
8043;DHT22;4064;48.132;11.366;2023-06-14T04:52:32;10.80;69.70
8043;DHT22;4064;48.132;11.366;2023-06-14T04:54:59;11.00;69.80
8043;DHT22;4064;48.132;11.366;2023-06-14T04:57:25;11.20;69.30
8043;DHT22;4064;48.132;11.366;2023-06-14T04:59:51;11.30;68.80
8043;DHT22;4064;48.132;11.366;2023-06-14T05:02:23;11.50;69.20
8043;DHT22;4064;48.132;11.366;2023-06-14T05:04:50;11.50;69.50
8043;DHT22;4064;48.132;11.366;2023-06-14T05:07:16;11.50;70.60
8043;DHT22;4064;48.132;11.366;2023-06-14T05:09:42;11.60;69.50
8043;DHT22;4064;48.132;11.366;2023-06-14T05:12:08;11.70;70.50
8043;DHT22;4064;48.132;11.366;2023-06-14T05:14:34;11.90;70.90
8043;DHT22;4064;48.132;11.366;2023-06-14T05:17:01;12.00;69.80
8043;DHT22;4064;48.132;11.366;2023-06-14T05:19:28;12.10;69.60
8043;DHT22;4064;48.132;11.366;2023-06-14T05:21:54;12.40;69.30
8043;DHT22;4064;48.132;11.366;2023-06-14T05:24:20;12.60;69.10
8043;DHT22;4064;48.132;11.366;2023-06-14T05:26:46;12.70;67.00
8043;DHT22;4064;48.132;11.366;2023-06-14T05:29:12;13.00;66.30
8043;DHT22;4064;48.132;11.366;2023-06-14T05:31:39;13.30;67.30
8043;DHT22;4064;48.132;11.366;2023-06-14T05:34:05;13.50;64.40
8043;DHT22;4064;48.132;11.366;2023-06-14T05:36:31;13.50;63.80
8043;DHT22;4064;48.132;11.366;2023-06-14T05:38:57;13.60;63.50
8043;DHT22;4064;48.132;11.366;2023-06-14T05:41:26;13.90;64.10
8043;DHT22;4064;48.132;11.366;2023-06-14T05:43:54;14.20;64.60
8043;DHT22;4064;48.132;11.366;2023-06-14T05:46:21;14.20;62.10
8043;DHT22;4064;48.132;11.366;2023-06-14T05:48:53;14.50;63.30
8043;DHT22;4064;48.132;11.366;2023-06-14T05:51:20;14.70;62.40
8043;DHT22;4064;48.132;11.366;2023-06-14T05:53:47;14.90;61.90
8043;DHT22;4064;48.132;11.366;2023-06-14T05:56:14;14.90;61.30
8043;DHT22;4064;48.132;11.366;2023-06-14T05:58:41;15.20;61.40
8043;DHT22;4064;48.132;11.366;2023-06-14T06:01:07;15.30;60.70
8043;DHT22;4064;48.132;11.366;2023-06-14T06:03:34;15.40;60.50
8043;DHT22;4064;48.132;11.366;2023-06-14T06:06:00;15.40;60.30
8043;DHT22;4064;48.132;11.366;2023-06-14T06:08:27;15.60;60.70
8043;DHT22;4064;48.132;11.366;2023-06-14T06:10:53;15.80;60.40
8043;DHT22;4064;48.132;11.366;2023-06-14T06:13:19;15.80;60.40
8043;DHT22;4064;48.132;11.366;2023-06-14T06:15:45;16.00;59.20
8043;DHT22;4064;48.132;11.366;2023-06-14T06:18:12;16.20;59.10
8043;DHT22;4064;48.132;11.366;2023-06-14T06:20:38;16.20;58.80
8043;DHT22;4064;48.132;11.366;2023-06-14T06:23:04;16.20;57.80
8043;DHT22;4064;48.132;11.366;2023-06-14T06:25:31;16.40;58.90
8043;DHT22;4064;48.132;11.366;2023-06-14T06:27:57;16.50;57.90
8043;DHT22;4064;48.132;11.366;2023-06-14T06:30:24;16.80;57.30
8043;DHT22;4064;48.132;11.366;2023-06-14T06:32:51;16.90;57.10
8043;DHT22;4064;48.132;11.366;2023-06-14T06:35:18;17.20;57.10
8043;DHT22;4064;48.132;11.366;2023-06-14T06:37:45;17.10;56.30
8043;DHT22;4064;48.132;11.366;2023-06-14T06:40:11;17.10;55.60
8043;DHT22;4064;48.132;11.366;2023-06-14T06:42:38;17.20;55.10
8043;DHT22;4064;48.132;11.366;2023-06-14T06:45:04;17.20;55.00
8043;DHT22;4064;48.132;11.366;2023-06-14T06:47:31;17.30;54.80
8043;DHT22;4064;48.132;11.366;2023-06-14T06:49:57;17.60;55.80
8043;DHT22;4064;48.132;11.366;2023-06-14T06:52:23;17.80;54.80
8043;DHT22;4064;48.132;11.366;2023-06-14T06:54:49;18.00;53.60
8043;DHT22;4064;48.132;11.366;2023-06-14T06:57:21;17.90;53.90
8043;DHT22;4064;48.132;11.366;2023-06-14T06:59:49;18.10;54.50
8043;DHT22;4064;48.132;11.366;2023-06-14T07:02:16;18.40;52.90
8043;DHT22;4064;48.132;11.366;2023-06-14T07:04:46;18.40;52.80
8043;DHT22;4064;48.132;11.366;2023-06-14T07:07:20;18.60;52.70
8043;DHT22;4064;48.132;11.366;2023-06-14T07:09:46;18.80;53.20
8043;DHT22;4064;48.132;11.366;2023-06-14T07:12:12;19.20;52.80
8043;DHT22;4064;48.132;11.366;2023-06-14T07:14:38;19.50;51.70
8043;DHT22;4064;48.132;11.366;2023-06-14T07:17:05;19.40;50.50
8043;DHT22;4064;48.132;11.366;2023-06-14T07:19:31;19.30;51.00
8043;DHT22;4064;48.132;11.366;2023-06-14T07:21:58;19.70;50.10
8043;DHT22;4064;48.132;11.366;2023-06-14T07:24:25;20.10;51.00
8043;DHT22;4064;48.132;11.366;2023-06-14T07:26:50;20.30;50.00
8043;DHT22;4064;48.132;11.366;2023-06-14T07:29:17;20.60;50.50
8043;DHT22;4064;48.132;11.366;2023-06-14T07:31:43;20.80;49.90
8043;DHT22;4064;48.132;11.366;2023-06-14T07:34:09;20.70;49.60
8043;DHT22;4064;48.132;11.366;2023-06-14T07:36:35;20.60;49.20
8043;DHT22;4064;48.132;11.366;2023-06-14T07:39:02;20.90;48.10
8043;DHT22;4064;48.132;11.366;2023-06-14T07:41:30;21.30;48.20
8043;DHT22;4064;48.132;11.366;2023-06-14T07:43:56;21.70;48.90
8043;DHT22;4064;48.132;11.366;2023-06-14T07:46:22;21.80;46.10
8043;DHT22;4064;48.132;11.366;2023-06-14T07:48:48;21.80;45.60
8043;DHT22;4064;48.132;11.366;2023-06-14T07:51:15;22.00;46.20
8043;DHT22;4064;48.132;11.366;2023-06-14T07:53:40;22.40;45.20
8043;DHT22;4064;48.132;11.366;2023-06-14T07:56:07;22.70;44.20
8043;DHT22;4064;48.132;11.366;2023-06-14T07:58:33;23.00;45.50
8043;DHT22;4064;48.132;11.366;2023-06-14T08:01:00;23.30;45.60
8043;DHT22;4064;48.132;11.366;2023-06-14T08:03:29;23.40;44.70
8043;DHT22;4064;48.132;11.366;2023-06-14T08:05:56;23.50;48.20
8043;DHT22;4064;48.132;11.366;2023-06-14T08:08:24;23.50;45.20
8043;DHT22;4064;48.132;11.366;2023-06-14T08:10:51;23.00;42.80
8043;DHT22;4064;48.132;11.366;2023-06-14T08:13:17;23.20;43.50
8043;DHT22;4064;48.132;11.366;2023-06-14T08:15:44;23.70;44.80
8043;DHT22;4064;48.132;11.366;2023-06-14T08:18:10;23.70;44.20
8043;DHT22;4064;48.132;11.366;2023-06-14T08:20:36;23.70;41.80
8043;DHT22;4064;48.132;11.366;2023-06-14T08:23:03;23.10;39.30
8043;DHT22;4064;48.132;11.366;2023-06-14T08:25:30;23.70;44.70
8043;DHT22;4064;48.132;11.366;2023-06-14T08:27:58;24.00;40.70
8043;DHT22;4064;48.132;11.366;2023-06-14T08:30:24;24.10;39.80
8043;DHT22;4064;48.132;11.366;2023-06-14T08:32:50;24.20;39.10
8043;DHT22;4064;48.132;11.366;2023-06-14T08:35:17;24.20;39.90
8043;DHT22;4064;48.132;11.366;2023-06-14T08:37:43;24.50;38.90
8043;DHT22;4064;48.132;11.366;2023-06-14T08:40:21;24.70;39.00
8043;DHT22;4064;48.132;11.366;2023-06-14T08:42:51;25.00;38.50
8043;DHT22;4064;48.132;11.366;2023-06-14T08:45:18;25.50;37.30
8043;DHT22;4064;48.132;11.366;2023-06-14T08:47:45;25.50;37.70
8043;DHT22;4064;48.132;11.366;2023-06-14T08:50:12;25.90;38.80
8043;DHT22;4064;48.132;11.366;2023-06-14T08:52:39;25.40;39.10
8043;DHT22;4064;48.132;11.366;2023-06-14T08:55:11;25.50;37.80
8043;DHT22;4064;48.132;11.366;2023-06-14T08:57:38;25.60;36.40
8043;DHT22;4064;48.132;11.366;2023-06-14T09:00:05;25.70;38.60
8043;DHT22;4064;48.132;11.366;2023-06-14T09:02:38;25.80;37.70
8043;DHT22;4064;48.132;11.366;2023-06-14T09:05:10;25.80;37.60
8043;DHT22;4064;48.132;11.366;2023-06-14T09:07:41;25.70;38.30
8043;DHT22;4064;48.132;11.366;2023-06-14T09:10:15;25.90;37.70
8043;DHT22;4064;48.132;11.366;2023-06-14T09:12:41;25.90;36.20
8043;DHT22;4064;48.132;11.366;2023-06-14T09:15:11;26.10;36.40
8043;DHT22;4064;48.132;11.366;2023-06-14T09:17:38;25.90;36.40
8043;DHT22;4064;48.132;11.366;2023-06-14T09:20:11;25.70;36.90
8043;DHT22;4064;48.132;11.366;2023-06-14T09:22:44;26.30;36.80
8043;DHT22;4064;48.132;11.366;2023-06-14T09:25:11;26.50;36.70
8043;DHT22;4064;48.132;11.366;2023-06-14T09:27:41;26.10;36.40
8043;DHT22;4064;48.132;11.366;2023-06-14T09:30:10;26.00;36.00
8043;DHT22;4064;48.132;11.366;2023-06-14T09:32:37;25.70;35.60
8043;DHT22;4064;48.132;11.366;2023-06-14T09:35:06;26.00;35.80
8043;DHT22;4064;48.132;11.366;2023-06-14T09:37:33;26.40;36.50
8043;DHT22;4064;48.132;11.366;2023-06-14T09:40:08;25.80;35.50
8043;DHT22;4064;48.132;11.366;2023-06-14T09:42:35;25.90;36.60
8043;DHT22;4064;48.132;11.366;2023-06-14T09:45:02;26.50;36.40
8043;DHT22;4064;48.132;11.366;2023-06-14T09:47:29;26.40;36.40
8043;DHT22;4064;48.132;11.366;2023-06-14T09:49:55;26.50;36.40
8043;DHT22;4064;48.132;11.366;2023-06-14T09:52:22;26.40;35.50
8043;DHT22;4064;48.132;11.366;2023-06-14T09:54:52;27.00;37.20
8043;DHT22;4064;48.132;11.366;2023-06-14T09:57:22;26.70;35.90
8043;DHT22;4064;48.132;11.366;2023-06-14T09:59:50;26.40;36.50
8043;DHT22;4064;48.132;11.366;2023-06-14T10:02:36;25.30;37.30
8043;DHT22;4064;48.132;11.366;2023-06-14T10:05:08;24.70;38.50
8043;DHT22;4064;48.132;11.366;2023-06-14T10:07:50;24.90;38.00
8043;DHT22;4064;48.132;11.366;2023-06-14T10:10:18;25.10;37.60
8043;DHT22;4064;48.132;11.366;2023-06-14T10:12:44;24.80;37.90
8043;DHT22;4064;48.132;11.366;2023-06-14T10:15:20;23.90;38.30
8043;DHT22;4064;48.132;11.366;2023-06-14T10:18:01;23.80;40.20
8043;DHT22;4064;48.132;11.366;2023-06-14T10:20:40;24.50;38.80
8043;DHT22;4064;48.132;11.366;2023-06-14T10:23:22;25.00;36.40
8043;DHT22;4064;48.132;11.366;2023-06-14T10:25:56;25.30;37.90
8043;DHT22;4064;48.132;11.366;2023-06-14T10:28:23;25.30;37.80
8043;DHT22;4064;48.132;11.366;2023-06-14T10:31:10;26.00;38.90
8043;DHT22;4064;48.132;11.366;2023-06-14T10:34:01;25.50;37.30
8043;DHT22;4064;48.132;11.366;2023-06-14T10:36:28;26.10;38.00
8043;DHT22;4064;48.132;11.366;2023-06-14T10:39:06;26.00;37.40
8043;DHT22;4064;48.132;11.366;2023-06-14T10:41:39;26.20;38.50
8043;DHT22;4064;48.132;11.366;2023-06-14T10:46:48;25.80;37.10
8043;DHT22;4064;48.132;11.366;2023-06-14T10:49:45;25.40;37.10
8043;DHT22;4064;48.132;11.366;2023-06-14T10:52:15;26.30;37.80
8043;DHT22;4064;48.132;11.366;2023-06-14T10:57:27;26.00;36.50
8043;DHT22;4064;48.132;11.366;2023-06-14T10:59:54;25.20;36.40
8043;DHT22;4064;48.132;11.366;2023-06-14T11:05:26;25.20;38.80
8043;DHT22;4064;48.132;11.366;2023-06-14T11:11:11;26.10;37.70
8043;DHT22;4064;48.132;11.366;2023-06-14T11:13:41;25.40;38.10
8043;DHT22;4064;48.132;11.366;2023-06-14T11:16:14;24.40;38.50
8043;DHT22;4064;48.132;11.366;2023-06-14T11:18:41;23.70;38.90
8043;DHT22;4064;48.132;11.366;2023-06-14T11:21:08;23.60;39.40
8043;DHT22;4064;48.132;11.366;2023-06-14T11:23:37;23.20;39.10
8043;DHT22;4064;48.132;11.366;2023-06-14T11:26:03;23.50;39.80
8043;DHT22;4064;48.132;11.366;2023-06-14T11:28:39;24.40;39.00
8043;DHT22;4064;48.132;11.366;2023-06-14T11:31:06;25.30;39.20
8043;DHT22;4064;48.132;11.366;2023-06-14T11:33:32;24.90;38.40
8043;DHT22;4064;48.132;11.366;2023-06-14T11:36:01;24.80;39.20
8043;DHT22;4064;48.132;11.366;2023-06-14T11:38:27;24.40;38.50
8043;DHT22;4064;48.132;11.366;2023-06-14T11:40:53;25.20;38.00
8043;DHT22;4064;48.132;11.366;2023-06-14T11:43:19;24.80;38.50
8043;DHT22;4064;48.132;11.366;2023-06-14T11:45:48;24.30;38.20
8043;DHT22;4064;48.132;11.366;2023-06-14T11:48:14;24.10;38.50
8043;DHT22;4064;48.132;11.366;2023-06-14T11:50:41;24.80;38.00
8043;DHT22;4064;48.132;11.366;2023-06-14T11:53:06;24.90;38.40
8043;DHT22;4064;48.132;11.366;2023-06-14T11:55:40;25.40;38.30
8043;DHT22;4064;48.132;11.366;2023-06-14T11:58:07;25.60;37.30
8043;DHT22;4064;48.132;11.366;2023-06-14T12:00:35;25.90;37.30
8043;DHT22;4064;48.132;11.366;2023-06-14T12:03:01;26.40;38.30
8043;DHT22;4064;48.132;11.366;2023-06-14T12:05:28;26.20;36.30
8043;DHT22;4064;48.132;11.366;2023-06-14T12:07:59;26.50;36.30
8043;DHT22;4064;48.132;11.366;2023-06-14T12:10:26;26.00;36.00
8043;DHT22;4064;48.132;11.366;2023-06-14T12:12:59;26.40;37.00
8043;DHT22;4064;48.132;11.366;2023-06-14T12:15:29;26.90;36.20
8043;DHT22;4064;48.132;11.366;2023-06-14T12:17:58;27.20;35.80
8043;DHT22;4064;48.132;11.366;2023-06-14T12:20:29;26.70;35.10
8043;DHT22;4064;48.132;11.366;2023-06-14T12:22:58;26.10;35.40
8043;DHT22;4064;48.132;11.366;2023-06-14T12:25:33;25.70;35.60
8043;DHT22;4064;48.132;11.366;2023-06-14T12:28:09;25.80;36.10
8043;DHT22;4064;48.132;11.366;2023-06-14T12:30:37;26.50;36.20
8043;DHT22;4064;48.132;11.366;2023-06-14T12:33:03;26.70;36.00
8043;DHT22;4064;48.132;11.366;2023-06-14T12:35:30;25.60;36.40
8043;DHT22;4064;48.132;11.366;2023-06-14T12:37:56;25.20;37.80
8043;DHT22;4064;48.132;11.366;2023-06-14T12:40:23;24.80;38.30
8043;DHT22;4064;48.132;11.366;2023-06-14T12:42:49;25.90;37.90
8043;DHT22;4064;48.132;11.366;2023-06-14T12:45:15;26.20;36.00
8043;DHT22;4064;48.132;11.366;2023-06-14T12:47:42;25.90;35.90
8043;DHT22;4064;48.132;11.366;2023-06-14T12:50:08;26.10;36.40
8043;DHT22;4064;48.132;11.366;2023-06-14T12:52:34;25.30;36.40
8043;DHT22;4064;48.132;11.366;2023-06-14T12:55:06;24.50;37.80
8043;DHT22;4064;48.132;11.366;2023-06-14T12:57:32;25.00;38.80
8043;DHT22;4064;48.132;11.366;2023-06-14T13:00:01;25.80;36.50
8043;DHT22;4064;48.132;11.366;2023-06-14T13:02:26;26.20;36.90
8043;DHT22;4064;48.132;11.366;2023-06-14T13:04:52;26.60;36.50
8043;DHT22;4064;48.132;11.366;2023-06-14T13:07:18;26.70;35.70
8043;DHT22;4064;48.132;11.366;2023-06-14T13:09:44;26.60;36.00
8043;DHT22;4064;48.132;11.366;2023-06-14T13:12:12;26.50;36.20
8043;DHT22;4064;48.132;11.366;2023-06-14T13:14:39;27.10;35.80
8043;DHT22;4064;48.132;11.366;2023-06-14T13:17:09;27.00;35.30
8043;DHT22;4064;48.132;11.366;2023-06-14T13:19:35;26.70;35.50
8043;DHT22;4064;48.132;11.366;2023-06-14T13:22:01;26.60;35.20
8043;DHT22;4064;48.132;11.366;2023-06-14T13:24:28;27.30;35.20
8043;DHT22;4064;48.132;11.366;2023-06-14T13:26:55;27.00;34.20
8043;DHT22;4064;48.132;11.366;2023-06-14T13:29:23;26.30;34.90
8043;DHT22;4064;48.132;11.366;2023-06-14T13:31:49;26.60;36.10
8043;DHT22;4064;48.132;11.366;2023-06-14T13:34:14;26.90;35.30
8043;DHT22;4064;48.132;11.366;2023-06-14T13:36:40;26.50;36.00
8043;DHT22;4064;48.132;11.366;2023-06-14T13:39:06;26.90;36.30
8043;DHT22;4064;48.132;11.366;2023-06-14T13:41:32;27.30;36.70
8043;DHT22;4064;48.132;11.366;2023-06-14T13:44:00;27.10;36.30
8043;DHT22;4064;48.132;11.366;2023-06-14T13:46:26;27.50;35.90
8043;DHT22;4064;48.132;11.366;2023-06-14T13:48:52;27.30;36.20
8043;DHT22;4064;48.132;11.366;2023-06-14T13:51:18;26.70;34.40
8043;DHT22;4064;48.132;11.366;2023-06-14T13:53:50;25.80;35.60
8043;DHT22;4064;48.132;11.366;2023-06-14T13:56:16;26.20;35.10
8043;DHT22;4064;48.132;11.366;2023-06-14T13:58:43;26.20;34.70
8043;DHT22;4064;48.132;11.366;2023-06-14T14:01:09;26.10;34.60
8043;DHT22;4064;48.132;11.366;2023-06-14T14:03:36;25.80;34.50
8043;DHT22;4064;48.132;11.366;2023-06-14T14:06:02;25.10;36.00
8043;DHT22;4064;48.132;11.366;2023-06-14T14:08:28;25.80;36.60
8043;DHT22;4064;48.132;11.366;2023-06-14T14:10:54;25.80;35.80
8043;DHT22;4064;48.132;11.366;2023-06-14T14:13:21;25.50;36.40
8043;DHT22;4064;48.132;11.366;2023-06-14T14:15:47;24.60;36.10
8043;DHT22;4064;48.132;11.366;2023-06-14T14:18:14;24.10;36.90
8043;DHT22;4064;48.132;11.366;2023-06-14T14:20:40;24.50;36.40
8043;DHT22;4064;48.132;11.366;2023-06-14T14:23:06;24.70;36.60
8043;DHT22;4064;48.132;11.366;2023-06-14T14:25:32;24.80;37.30
8043;DHT22;4064;48.132;11.366;2023-06-14T14:27:58;24.90;36.10
8043;DHT22;4064;48.132;11.366;2023-06-14T14:30:23;25.30;36.30
8043;DHT22;4064;48.132;11.366;2023-06-14T14:32:50;25.10;35.30
8043;DHT22;4064;48.132;11.366;2023-06-14T14:35:17;24.70;36.20
8043;DHT22;4064;48.132;11.366;2023-06-14T14:37:43;24.60;37.00
8043;DHT22;4064;48.132;11.366;2023-06-14T14:40:09;24.90;36.90
8043;DHT22;4064;48.132;11.366;2023-06-14T14:42:36;24.80;37.00
8043;DHT22;4064;48.132;11.366;2023-06-14T14:45:02;24.00;36.50
8043;DHT22;4064;48.132;11.366;2023-06-14T14:47:28;23.60;36.70
8043;DHT22;4064;48.132;11.366;2023-06-14T14:49:54;23.40;36.80
8043;DHT22;4064;48.132;11.366;2023-06-14T14:52:20;23.60;37.70
8043;DHT22;4064;48.132;11.366;2023-06-14T14:54:45;23.30;39.20
8043;DHT22;4064;48.132;11.366;2023-06-14T14:57:11;23.30;37.90
8043;DHT22;4064;48.132;11.366;2023-06-14T14:59:37;23.90;38.70
8043;DHT22;4064;48.132;11.366;2023-06-14T15:02:03;24.00;37.40
8043;DHT22;4064;48.132;11.366;2023-06-14T15:04:28;23.80;38.20
8043;DHT22;4064;48.132;11.366;2023-06-14T15:06:54;23.60;38.50
8043;DHT22;4064;48.132;11.366;2023-06-14T15:09:20;23.50;38.40
8043;DHT22;4064;48.132;11.366;2023-06-14T15:11:46;23.50;38.20
8043;DHT22;4064;48.132;11.366;2023-06-14T15:14:11;23.70;38.20
8043;DHT22;4064;48.132;11.366;2023-06-14T15:16:37;23.70;38.20
8043;DHT22;4064;48.132;11.366;2023-06-14T15:19:03;24.00;38.30
8043;DHT22;4064;48.132;11.366;2023-06-14T15:21:29;24.00;38.20
8043;DHT22;4064;48.132;11.366;2023-06-14T15:23:54;23.60;36.90
8043;DHT22;4064;48.132;11.366;2023-06-14T15:26:21;23.70;38.10
8043;DHT22;4064;48.132;11.366;2023-06-14T15:28:46;24.00;37.90
8043;DHT22;4064;48.132;11.366;2023-06-14T15:31:12;23.90;37.10
8043;DHT22;4064;48.132;11.366;2023-06-14T15:33:38;23.80;36.40
8043;DHT22;4064;48.132;11.366;2023-06-14T15:36:05;24.00;37.10
8043;DHT22;4064;48.132;11.366;2023-06-14T15:38:31;23.80;37.00
8043;DHT22;4064;48.132;11.366;2023-06-14T15:40:58;23.50;37.30
8043;DHT22;4064;48.132;11.366;2023-06-14T15:43:23;23.50;38.40
8043;DHT22;4064;48.132;11.366;2023-06-14T15:45:49;23.40;38.80
8043;DHT22;4064;48.132;11.366;2023-06-14T15:48:15;23.60;39.50
8043;DHT22;4064;48.132;11.366;2023-06-14T15:50:41;23.50;38.90
8043;DHT22;4064;48.132;11.366;2023-06-14T15:53:07;23.50;38.60
8043;DHT22;4064;48.132;11.366;2023-06-14T15:55:32;23.40;38.00
8043;DHT22;4064;48.132;11.366;2023-06-14T15:57:58;23.40;38.20
8043;DHT22;4064;48.132;11.366;2023-06-14T16:00:24;23.30;37.90
8043;DHT22;4064;48.132;11.366;2023-06-14T16:02:51;23.30;37.60
8043;DHT22;4064;48.132;11.366;2023-06-14T16:05:17;23.40;38.30